Time;durP1;ratioP1;P1;durP2;ratioP2;P2;SDS_P1;SDS_P2;PMS_P1;PMS_P2;Temp;Humidity;BMP_temperature;BMP_pressure;BME280_temperature;BME280_humidity;BME280_pressure;Samples;Min_cycle;Max_cycle;Signal;HPM_P1;HPM_P2
2021/06/23 00:01:15;;;;;;;41.72;13.75;;;;;;;;;;5016675;28;20105;-65
2021/06/23 00:03:41;;;;;;;43.58;14.18;;;;;;;;;;5016746;28;20029;-65
2021/06/23 00:06:08;;;;;;;43.80;14.82;;;;;;;;;;5016833;28;20111;-64
2021/06/23 00:08:34;;;;;;;46.05;13.43;;;;;;;;;;5015120;28;20474;-66
2021/06/23 00:11:02;;;;;;;37.88;12.73;;;;;;;;;;5016481;28;20022;-67
2021/06/23 00:13:31;;;;;;;47.20;14.52;;;;;;;;;;5016455;28;20033;-66
2021/06/23 00:15:58;;;;;;;41.22;14.05;;;;;;;;;;5016424;28;20026;-67
2021/06/23 00:18:24;;;;;;;46.08;15.25;;;;;;;;;;5016334;28;20037;-65
2021/06/23 00:20:50;;;;;;;52.00;16.27;;;;;;;;;;5016613;28;20068;-68
2021/06/23 00:23:16;;;;;;;38.38;14.85;;;;;;;;;;5016246;28;20026;-66
2021/06/23 00:25:43;;;;;;;35.40;14.75;;;;;;;;;;5016255;28;20065;-65
2021/06/23 00:28:09;;;;;;;54.92;15.68;;;;;;;;;;5016114;28;20026;-65
2021/06/23 00:30:36;;;;;;;38.65;14.32;;;;;;;;;;5016215;28;20021;-64
2021/06/23 00:33:06;;;;;;;43.95;14.10;;;;;;;;;;5016125;28;20032;-65
2021/06/23 00:35:33;;;;;;;51.17;17.25;;;;;;;;;;5015761;28;20072;-68
2021/06/23 00:37:59;;;;;;;52.67;18.25;;;;;;;;;;5016032;28;20104;-66
2021/06/23 00:40:25;;;;;;;48.88;16.98;;;;;;;;;;5015924;28;20022;-64
2021/06/23 00:42:52;;;;;;;43.47;16.05;;;;;;;;;;5015972;28;20026;-65
2021/06/23 00:45:20;;;;;;;49.30;14.85;;;;;;;;;;5016185;28;20022;-64
2021/06/23 00:47:48;;;;;;;39.72;14.52;;;;;;;;;;5015780;28;20065;-64
2021/06/23 00:50:15;;;;;;;42.72;15.27;;;;;;;;;;5015736;28;20021;-64
2021/06/23 00:52:41;;;;;;;39.47;13.35;;;;;;;;;;5015257;28;20370;-65
2021/06/23 00:55:08;;;;;;;35.38;13.45;;;;;;;;;;5015704;28;20113;-64
2021/06/23 00:57:34;;;;;;;35.92;13.23;;;;;;;;;;5015628;28;20069;-64
2021/06/23 01:00:01;;;;;;;35.28;12.25;;;;;;;;;;5014256;28;20026;-64
2021/06/23 01:02:28;;;;;;;45.00;13.80;;;;;;;;;;5014229;28;20022;-64
2021/06/23 01:04:54;;;;;;;41.55;13.23;;;;;;;;;;5015510;28;20514;-64
2021/06/23 01:07:21;;;;;;;42.60;14.13;;;;;;;;;;5014113;28;20034;-65
2021/06/23 01:09:47;;;;;;;40.17;13.13;;;;;;;;;;5015452;28;20026;-65
2021/06/23 01:12:29;;;;;;;37.45;13.50;;;;;;;;;;5014065;28;20028;-64
2021/06/23 01:14:58;;;;;;;;;;;;;;;;;;5014534;28;20486;-63
2021/06/23 01:17:27;;;;;;;39.38;12.55;;;;;;;;;;5015310;28;19910;-64
2021/06/23 01:20:00;;;;;;;31.70;11.82;;;;;;;;;;5015192;28;20028;-64
2021/06/23 01:22:26;;;;;;;32.63;14.35;;;;;;;;;;5015505;28;20026;-65
2021/06/23 01:24:53;;;;;;;35.13;14.68;;;;;;;;;;5015167;28;20026;-67
2021/06/23 01:27:19;;;;;;;39.75;14.15;;;;;;;;;;5015051;28;20026;-65
2021/06/23 01:29:45;;;;;;;37.92;13.93;;;;;;;;;;5015064;28;20036;-65
2021/06/23 01:32:11;;;;;;;35.10;14.50;;;;;;;;;;5015068;28;20112;-66
2021/06/23 01:34:37;;;;;;;49.70;16.10;;;;;;;;;;5013638;28;20064;-64
2021/06/23 01:37:04;;;;;;;35.95;14.48;;;;;;;;;;5014868;28;20061;-66
2021/06/23 01:39:31;;;;;;;42.42;14.95;;;;;;;;;;5013256;28;20062;-67
2021/06/23 01:41:58;;;;;;;34.80;13.95;;;;;;;;;;5014830;28;20026;-65
2021/06/23 01:44:24;;;;;;;47.13;15.40;;;;;;;;;;5014738;28;20485;-65
2021/06/23 01:46:50;;;;;;;35.50;14.35;;;;;;;;;;5014666;28;20022;-64
2021/06/23 01:49:23;;;;;;;34.92;14.05;;;;;;;;;;5013318;28;20029;-67
2021/06/23 01:51:49;;;;;;;34.45;13.73;;;;;;;;;;5014596;28;20022;-66
2021/06/23 01:54:15;;;;;;;41.33;13.65;;;;;;;;;;5014653;28;20046;-66
2021/06/23 01:56:42;;;;;;;36.45;13.15;;;;;;;;;;5014520;28;20057;-66
2021/06/23 01:59:08;;;;;;;32.97;13.00;;;;;;;;;;5013154;28;20120;-66
2021/06/23 02:01:34;;;;;;;45.33;14.05;;;;;;;;;;5013107;28;20165;-64
2021/06/23 02:04:06;;;;;;;35.53;13.60;;;;;;;;;;5014100;28;20026;-66
2021/06/23 02:06:53;;;;;;;36.97;11.32;;;;;;;;;;5014028;28;20022;-66
2021/06/23 02:09:25;;;;;;;44.13;13.25;;;;;;;;;;5014327;28;20132;-66
2021/06/23 02:11:58;;;;;;;36.15;11.75;;;;;;;;;;5014537;28;20104;-67
2021/06/23 02:14:31;;;;;;;37.58;12.18;;;;;;;;;;5013990;28;20424;-64
2021/06/23 02:16:58;;;;;;;44.25;13.32;;;;;;;;;;5014222;28;20097;-65
2021/06/23 02:19:24;;;;;;;34.28;11.75;;;;;;;;;;5014167;28;20026;-67
2021/06/23 02:21:50;;;;;;;29.02;10.82;;;;;;;;;;5014053;28;20029;-67
2021/06/23 02:24:17;;;;;;;41.60;12.70;;;;;;;;;;5013991;28;20014;-67
2021/06/23 02:26:43;;;;;;;33.38;12.73;;;;;;;;;;5012726;28;20021;-66
2021/06/23 02:29:09;;;;;;;37.55;11.77;;;;;;;;;;5013911;28;20026;-64
2021/06/23 02:31:38;;;;;;;37.38;10.05;;;;;;;;;;5013930;28;20029;-64
2021/06/23 02:34:08;;;;;;;40.78;11.80;;;;;;;;;;5013826;28;20466;-66
2021/06/23 02:36:34;;;;;;;35.58;11.15;;;;;;;;;;5012177;28;20476;-66
2021/06/23 02:39:01;;;;;;;42.22;11.98;;;;;;;;;;5013777;28;20053;-65
2021/06/23 02:41:27;;;;;;;41.65;10.77;;;;;;;;;;5012364;28;20433;-65
2021/06/23 02:43:53;;;;;;;39.60;10.77;;;;;;;;;;5013491;28;20084;-64
2021/06/23 02:46:20;;;;;;;29.50;9.90;;;;;;;;;;5013686;28;20068;-66
2021/06/23 02:48:46;;;;;;;44.63;11.23;;;;;;;;;;5011999;28;20060;-64
2021/06/23 02:51:20;;;;;;;41.75;11.00;;;;;;;;;;5012322;28;20444;-65
2021/06/23 02:53:48;;;;;;;36.97;11.02;;;;;;;;;;5013696;28;20040;-65
2021/06/23 02:56:15;;;;;;;38.83;11.07;;;;;;;;;;5013511;28;20038;-65
2021/06/23 02:58:42;;;;;;;41.35;11.60;;;;;;;;;;5013210;28;20030;-64
2021/06/23 03:01:10;;;;;;;38.67;10.77;;;;;;;;;;5013497;28;20109;-65
2021/06/23 03:03:37;;;;;;;32.58;9.88;;;;;;;;;;5013386;28;20133;-65
2021/06/23 03:06:03;;;;;;;53.42;11.18;;;;;;;;;;5012150;28;20026;-67
2021/06/23 03:08:30;;;;;;;44.28;10.38;;;;;;;;;;5013349;28;20025;-67
2021/06/23 03:10:57;;;;;;;39.13;10.82;;;;;;;;;;5013370;28;20026;-66
2021/06/23 03:13:23;;;;;;;41.35;10.57;;;;;;;;;;5013278;28;20030;-65
2021/06/23 03:15:49;;;;;;;35.80;12.95;;;;;;;;;;5013146;28;20104;-65
2021/06/23 03:18:15;;;;;;;46.17;14.32;;;;;;;;;;5013334;28;20026;-64
2021/06/23 03:20:41;;;;;;;36.58;11.85;;;;;;;;;;5013286;28;20029;-64
2021/06/23 03:23:08;;;;;;;38.78;10.20;;;;;;;;;;5013233;28;20026;-65
2021/06/23 03:25:34;;;;;;;45.58;11.07;;;;;;;;;;5013263;28;20505;-65
2021/06/23 03:28:04;;;;;;;34.63;9.77;;;;;;;;;;5011873;28;20049;-66
2021/06/23 03:30:31;;;;;;;41.03;10.85;;;;;;;;;;5013265;28;20030;-64
2021/06/23 03:32:58;;;;;;;31.20;9.23;;;;;;;;;;5011851;28;20037;-65
2021/06/23 03:35:25;;;;;;;38.90;9.10;;;;;;;;;;5013143;28;20041;-65
2021/06/23 03:37:52;;;;;;;35.80;9.85;;;;;;;;;;5013251;28;20057;-65
2021/06/23 03:40:20;;;;;;;36.25;9.85;;;;;;;;;;5011793;28;20034;-66
2021/06/23 03:42:46;;;;;;;39.45;9.32;;;;;;;;;;5013127;28;20018;-66
2021/06/23 03:45:13;;;;;;;37.25;9.55;;;;;;;;;;5013066;28;20022;-66
2021/06/23 03:47:40;;;;;;;31.88;9.02;;;;;;;;;;5011683;28;20474;-66
2021/06/23 03:50:06;;;;;;;37.55;9.35;;;;;;;;;;5013001;28;20370;-65
2021/06/23 03:52:33;;;;;;;42.65;9.75;;;;;;;;;;5011678;28;20477;-66
2021/06/23 03:54:59;;;;;;;34.90;9.07;;;;;;;;;;5012707;28;20525;-64
2021/06/23 03:57:26;;;;;;;47.97;10.15;;;;;;;;;;5011704;28;20022;-67
2021/06/23 03:59:53;;;;;;;38.60;9.55;;;;;;;;;;5012945;28;20412;-66
2021/06/23 04:02:19;;;;;;;42.38;9.60;;;;;;;;;;5012941;28;20026;-67
2021/06/23 04:04:46;;;;;;;34.65;9.63;;;;;;;;;;5011695;28;20018;-66
2021/06/23 04:07:16;;;;;;;42.38;10.45;;;;;;;;;;5013125;28;20160;-66
2021/06/23 04:09:42;;;;;;;39.97;8.95;;;;;;;;;;5011379;28;20026;-64
2021/06/23 04:12:09;;;;;;;32.75;9.43;;;;;;;;;;5012781;28;20530;-65
2021/06/23 04:14:35;;;;;;;40.05;9.73;;;;;;;;;;5012875;28;20022;-65
2021/06/23 04:17:02;;;;;;;45.90;11.70;;;;;;;;;;5011444;28;20018;-67
2021/06/23 04:19:28;;;;;;;50.25;14.80;;;;;;;;;;5011400;28;20087;-64
2021/06/23 04:21:54;;;;;;;50.45;14.60;;;;;;;;;;5012714;28;20026;-66
2021/06/23 04:24:20;;;;;;;45.88;12.70;;;;;;;;;;5012635;28;20533;-66
2021/06/23 04:26:46;;;;;;;48.78;13.00;;;;;;;;;;5011414;28;20141;-65
2021/06/23 04:29:13;;;;;;;49.85;12.32;;;;;;;;;;5015139;28;20026;-65
2021/06/23 04:31:40;;;;;;;49.15;10.35;;;;;;;;;;5015890;28;20109;-65
2021/06/23 04:34:06;;;;;;;40.33;10.90;;;;;;;;;;5016176;28;20022;-66
2021/06/23 04:36:32;;;;;;;36.58;11.10;;;;;;;;;;5016163;28;20364;-66
2021/06/23 04:38:59;;;;;;;40.25;11.35;;;;;;;;;;5014722;28;20471;-66
2021/06/23 04:41:25;;;;;;;44.63;10.30;;;;;;;;;;5015948;28;20052;-68
2021/06/23 04:43:51;;;;;;;36.33;9.55;;;;;;;;;;5014670;28;20533;-67
2021/06/23 04:46:18;;;;;;;31.15;9.32;;;;;;;;;;5015945;28;20026;-66
2021/06/23 04:48:44;;;;;;;37.83;8.27;;;;;;;;;;5015741;28;20056;-65
2021/06/23 04:51:12;;;;;;;46.45;8.63;;;;;;;;;;5015814;28;20022;-66
2021/06/23 04:53:38;;;;;;;36.08;9.50;;;;;;;;;;5015704;28;20029;-65
2021/06/23 04:56:05;;;;;;;25.75;7.72;;;;;;;;;;5015812;28;20034;-66
2021/06/23 04:58:31;;;;;;;41.88;8.75;;;;;;;;;;5014406;28;20030;-67
2021/06/23 05:00:58;;;;;;;26.17;8.10;;;;;;;;;;5015676;28;20026;-67
2021/06/23 05:03:24;;;;;;;38.28;9.50;;;;;;;;;;5015603;28;20578;-68
2021/06/23 05:05:50;;;;;;;37.10;7.72;;;;;;;;;;5014253;28;20053;-68
2021/06/23 05:08:16;;;;;;;34.00;8.63;;;;;;;;;;5015414;28;20706;-70
2021/06/23 05:10:42;;;;;;;38.22;9.77;;;;;;;;;;5015632;28;20037;-67
2021/06/23 05:13:09;;;;;;;38.40;9.27;;;;;;;;;;5015379;28;20478;-69
2021/06/23 05:15:35;;;;;;;39.05;8.20;;;;;;;;;;5015357;28;20075;-69
2021/06/23 05:18:03;;;;;;;32.97;8.13;;;;;;;;;;5015303;28;20555;-67
2021/06/23 05:20:29;;;;;;;28.80;7.30;;;;;;;;;;5015259;28;20022;-68
2021/06/23 05:22:55;;;;;;;39.85;8.57;;;;;;;;;;5013727;28;20028;-67
2021/06/23 05:25:21;;;;;;;36.90;8.15;;;;;;;;;;5017490;28;20053;-69
2021/06/23 05:27:48;;;;;;;33.72;7.32;;;;;;;;;;5017422;28;20076;-64
2021/06/23 05:30:15;;;;;;;32.03;8.32;;;;;;;;;;5016708;28;20025;-63
2021/06/23 05:32:41;;;;;;;23.33;7.15;;;;;;;;;;5016043;28;20097;-63
2021/06/23 05:35:07;;;;;;;33.42;7.40;;;;;;;;;;5016750;28;20105;-64
2021/06/23 05:37:33;;;;;;;35.53;7.45;;;;;;;;;;5016287;28;20136;-64
2021/06/23 05:40:00;;;;;;;29.15;8.15;;;;;;;;;;5015082;28;20462;-64
2021/06/23 05:42:26;;;;;;;29.20;7.47;;;;;;;;;;5014726;28;20112;-64
2021/06/23 05:44:52;;;;;;;27.20;7.68;;;;;;;;;;5014814;28;20104;-64
2021/06/23 05:47:18;;;;;;;27.52;7.22;;;;;;;;;;5014851;28;20026;-64
2021/06/23 05:49:45;;;;;;;34.92;8.18;;;;;;;;;;5013219;28;20049;-63
2021/06/23 05:52:11;;;;;;;27.90;7.45;;;;;;;;;;5014760;28;20458;-64
2021/06/23 05:54:37;;;;;;;25.25;6.53;;;;;;;;;;5016916;28;20030;-63
2021/06/23 05:57:03;;;;;;;29.02;7.93;;;;;;;;;;5013315;28;20113;-63
2021/06/23 05:59:31;;;;;;;38.38;7.22;;;;;;;;;;5014367;28;20029;-63
2021/06/23 06:01:57;;;;;;;31.30;7.95;;;;;;;;;;5014423;28;20018;-63
2021/06/23 06:04:23;;;;;;;34.83;7.10;;;;;;;;;;5014322;28;20109;-64
2021/06/23 06:06:49;;;;;;;29.05;6.57;;;;;;;;;;5013984;28;20426;-65
2021/06/23 06:09:16;;;;;;;39.85;6.85;;;;;;;;;;5012936;28;20163;-63
2021/06/23 06:11:42;;;;;;;29.20;6.85;;;;;;;;;;5012901;28;20118;-63
2021/06/23 06:14:08;;;;;;;28.73;6.90;;;;;;;;;;5014035;28;20045;-66
2021/06/23 06:16:34;;;;;;;27.90;6.80;;;;;;;;;;5014131;28;20131;-62
2021/06/23 06:19:01;;;;;;;29.23;6.10;;;;;;;;;;5014085;28;20021;-64
2021/06/23 06:21:27;;;;;;;30.02;6.25;;;;;;;;;;5014008;28;20018;-61
2021/06/23 06:23:53;;;;;;;25.90;6.88;;;;;;;;;;5012715;28;20433;-63
2021/06/23 06:26:20;;;;;;;26.58;6.68;;;;;;;;;;5014063;28;20026;-63
2021/06/23 06:28:46;;;;;;;28.80;6.47;;;;;;;;;;5013875;28;20033;-62
2021/06/23 06:31:12;;;;;;;28.65;6.55;;;;;;;;;;5013787;28;20025;-63
2021/06/23 06:33:38;;;;;;;27.83;7.18;;;;;;;;;;5013870;28;20543;-63
2021/06/23 06:36:05;;;;;;;25.00;6.57;;;;;;;;;;5012338;28;20162;-63
2021/06/23 06:38:31;;;;;;;23.90;5.75;;;;;;;;;;5013856;28;20034;-62
2021/06/23 06:40:58;;;;;;;22.55;5.47;;;;;;;;;;5013847;28;20368;-67
2021/06/23 06:43:24;;;;;;;31.63;5.95;;;;;;;;;;5013507;28;20771;-64
2021/06/23 06:45:52;;;;;;;26.05;5.80;;;;;;;;;;5012488;28;20505;-64
2021/06/23 06:48:21;;;;;;;33.13;7.25;;;;;;;;;;5012294;28;20038;-64
2021/06/23 06:50:47;;;;;;;29.33;6.60;;;;;;;;;;5013182;28;20014;-64
2021/06/23 06:53:13;;;;;;;27.42;6.13;;;;;;;;;;5013602;28;20017;-64
2021/06/23 06:55:39;;;;;;;31.23;6.68;;;;;;;;;;5013318;28;20022;-63
2021/06/23 06:58:06;;;;;;;32.72;6.15;;;;;;;;;;5013193;28;20144;-65
2021/06/23 07:00:32;;;;;;;23.15;5.72;;;;;;;;;;5013779;28;20121;-64
2021/06/23 07:02:58;;;;;;;22.38;5.53;;;;;;;;;;5013470;28;20032;-64
2021/06/23 07:05:24;;;;;;;35.00;5.80;;;;;;;;;;5013431;28;20041;-65
2021/06/23 07:07:51;;;;;;;23.08;6.65;;;;;;;;;;5013418;28;20073;-64
2021/06/23 07:10:17;;;;;;;21.38;5.85;;;;;;;;;;5013386;28;20029;-65
2021/06/23 07:12:44;;;;;;;26.00;5.57;;;;;;;;;;5013440;28;20018;-65
2021/06/23 07:15:11;;;;;;;27.08;5.75;;;;;;;;;;5013373;28;20538;-64
2021/06/23 07:17:37;;;;;;;27.33;5.88;;;;;;;;;;5013320;28;20022;-66
2021/06/23 07:20:07;;;;;;;27.13;5.63;;;;;;;;;;5007618;28;20105;-64
2021/06/23 07:22:33;;;;;;;27.35;5.47;;;;;;;;;;5012066;28;20018;-66
2021/06/23 07:24:59;;;;;;;25.27;5.53;;;;;;;;;;5013277;28;20049;-64
2021/06/23 07:27:26;;;;;;;24.27;6.15;;;;;;;;;;5011394;28;20022;-64
2021/06/23 07:29:52;;;;;;;21.63;5.57;;;;;;;;;;5013136;28;20506;-65
2021/06/23 07:32:31;;;;;;;19.48;4.82;;;;;;;;;;5013197;28;20061;-65
2021/06/23 07:37:42;;;;;;;25.85;5.45;;;;;;;;;;5012980;28;20049;-64
2021/06/23 07:40:09;;;;;;;22.48;4.97;;;;;;;;;;5012943;28;20049;-64
2021/06/23 07:42:35;;;;;;;25.38;5.90;;;;;;;;;;5012768;28;20148;-67
2021/06/23 07:45:03;;;;;;;17.75;5.28;;;;;;;;;;5012933;28;20029;-65
2021/06/23 07:47:33;;;;;;;23.15;4.60;;;;;;;;;;5012225;28;20515;-65
2021/06/23 07:49:59;;;;;;;21.58;5.30;;;;;;;;;;5013283;28;20081;-65
2021/06/23 07:55:12;;;;;;;17.25;4.30;;;;;;;;;;5012872;28;20030;-65
2021/06/23 08:11:05;;;;;;;23.73;3.90;;;;;;;;;;5016057;28;20483;-67
2021/06/23 08:13:31;;;;;;;20.30;4.68;;;;;;;;;;5016545;28;20462;-70
2021/06/23 08:15:57;;;;;;;20.75;4.50;;;;;;;;;;5016460;28;20030;-67
2021/06/23 08:18:23;;;;;;;17.70;4.28;;;;;;;;;;5015330;28;20108;-68
2021/06/23 08:20:50;;;;;;;23.10;4.75;;;;;;;;;;5016243;28;20053;-66
2021/06/23 08:23:17;;;;;;;17.83;3.83;;;;;;;;;;5014423;28;20036;-70
2021/06/23 08:25:43;;;;;;;18.38;4.53;;;;;;;;;;5014894;28;20022;-69
2021/06/23 08:28:09;;;;;;;15.43;4.57;;;;;;;;;;5016106;28;20034;-67
2021/06/23 08:30:35;;;;;;;23.20;4.40;;;;;;;;;;5014879;28;20083;-72
2021/06/23 08:33:02;;;;;;;13.70;3.88;;;;;;;;;;5015691;28;20488;-66
2021/06/23 08:35:29;;;;;;;9.45;3.33;;;;;;;;;;5015634;28;20418;-68
2021/06/23 08:37:55;;;;;;;24.98;5.75;;;;;;;;;;5016263;28;20037;-68
2021/06/23 08:40:22;;;;;;;12.73;3.28;;;;;;;;;;5016043;28;20445;-70
2021/06/23 08:42:48;;;;;;;17.67;3.60;;;;;;;;;;5015951;28;20014;-70
2021/06/23 08:45:14;;;;;;;24.42;4.22;;;;;;;;;;5014637;28;20030;-68
2021/06/23 08:47:41;;;;;;;18.23;3.97;;;;;;;;;;5015880;28;20486;-69
2021/06/23 08:50:09;;;;;;;20.35;4.10;;;;;;;;;;5014707;28;20470;-70
2021/06/23 08:52:36;;;;;;;19.45;4.93;;;;;;;;;;5015790;28;20052;-69
2021/06/23 08:55:03;;;;;;;20.63;4.32;;;;;;;;;;5014408;28;20030;-68
2021/06/23 08:57:30;;;;;;;15.82;4.55;;;;;;;;;;5015558;28;20025;-71
2021/06/23 08:59:57;;;;;;;17.83;3.92;;;;;;;;;;5015149;28;20026;-70
2021/06/23 09:02:23;;;;;;;20.70;4.03;;;;;;;;;;5014297;28;20565;-69
2021/06/23 09:04:59;;;;;;;14.32;4.18;;;;;;;;;;5015577;28;20022;-70
2021/06/23 09:07:43;;;;;;;15.48;3.72;;;;;;;;;;5014280;28;20441;-69
2021/06/23 09:10:22;;;;;;;15.48;4.15;;;;;;;;;;5014257;28;20498;-69
2021/06/23 09:13:06;;;;;;;19.73;3.40;;;;;;;;;;5015092;28;20021;-69
2021/06/23 09:15:38;;;;;;;13.68;3.25;;;;;;;;;;5014959;28;20026;-68
2021/06/23 09:18:15;;;;;;;10.60;3.33;;;;;;;;;;5015420;28;20508;-69
2021/06/23 09:20:41;;;;;;;13.75;3.70;;;;;;;;;;5015302;28;20033;-68
2021/06/23 09:23:07;;;;;;;10.75;3.42;;;;;;;;;;5015230;28;20034;-69
2021/06/23 09:25:36;;;;;;;14.95;3.20;;;;;;;;;;5015137;28;20018;-70
2021/06/23 09:28:04;;;;;;;14.63;3.30;;;;;;;;;;5015149;28;20026;-70
2021/06/23 09:30:35;;;;;;;20.52;3.17;;;;;;;;;;5015084;28;20022;-69
2021/06/23 09:33:13;;;;;;;15.43;4.47;;;;;;;;;;5015036;28;20025;-68
2021/06/23 09:35:41;;;;;;;14.73;3.58;;;;;;;;;;5014538;28;20050;-68
2021/06/23 09:38:07;;;;;;;12.60;3.50;;;;;;;;;;5015219;28;20474;-69
2021/06/23 09:40:41;;;;;;;20.55;4.38;;;;;;;;;;5014864;28;20026;-69
2021/06/23 09:43:09;;;;;;;17.63;3.80;;;;;;;;;;5014703;28;20022;-70
2021/06/23 09:45:36;;;;;;;12.90;2.85;;;;;;;;;;5014685;28;20493;-70
2021/06/23 09:48:03;;;;;;;13.30;3.33;;;;;;;;;;5013405;28;20133;-69
2021/06/23 09:50:31;;;;;;;9.93;2.78;;;;;;;;;;5014553;28;20141;-68
2021/06/23 09:53:09;;;;;;;15.05;3.15;;;;;;;;;;5014570;28;20020;-69
2021/06/23 09:55:39;;;;;;;14.07;3.80;;;;;;;;;;5014632;28;20034;-69
2021/06/23 09:58:09;;;;;;;12.93;2.75;;;;;;;;;;5013060;28;20049;-70
2021/06/23 10:00:56;;;;;;;11.88;3.40;;;;;;;;;;5014389;28;20014;-68
2021/06/23 10:03:23;;;;;;;12.10;3.20;;;;;;;;;;5013097;28;20084;-70
2021/06/23 10:05:49;;;;;;;13.43;3.33;;;;;;;;;;5014247;28;20462;-70
2021/06/23 10:08:22;;;;;;;11.98;3.25;;;;;;;;;;5014538;28;20044;-70
2021/06/23 10:10:48;;;;;;;9.57;2.85;;;;;;;;;;5014302;28;20061;-69
2021/06/23 10:13:16;;;;;;;12.80;3.40;;;;;;;;;;5014583;28;20232;-68
2021/06/23 10:15:44;;;;;;;16.38;3.65;;;;;;;;;;5012986;28;20029;-69
2021/06/23 10:18:10;;;;;;;11.30;3.53;;;;;;;;;;5014457;28;20439;-70
2021/06/23 10:20:37;;;;;;;11.40;3.45;;;;;;;;;;5012258;28;20022;-68
2021/06/23 10:23:06;;;;;;;15.27;3.67;;;;;;;;;;5013593;28;20033;-67
2021/06/23 10:25:33;;;;;;;13.38;2.90;;;;;;;;;;5013120;28;20022;-66
2021/06/23 10:28:00;;;;;;;11.98;3.30;;;;;;;;;;5012564;28;20065;-66
2021/06/23 10:30:31;;;;;;;16.05;3.13;;;;;;;;;;5013864;28;20019;-68
2021/06/23 10:32:58;;;;;;;16.90;2.97;;;;;;;;;;5013790;28;20033;-68
2021/06/23 10:35:25;;;;;;;18.55;3.33;;;;;;;;;;5013298;28;20128;-69
2021/06/23 10:37:52;;;;;;;11.57;3.00;;;;;;;;;;5013797;28;20018;-67
2021/06/23 10:40:19;;;;;;;8.52;3.25;;;;;;;;;;5013169;28;20099;-67
2021/06/23 10:42:46;;;;;;;17.20;3.55;;;;;;;;;;5011717;28;20172;-67
2021/06/23 10:45:12;;;;;;;10.15;3.17;;;;;;;;;;5012276;28;20116;-67
2021/06/23 10:47:39;;;;;;;12.68;3.25;;;;;;;;;;5013722;28;20093;-67
2021/06/23 10:50:09;;;;;;;15.77;2.90;;;;;;;;;;5013576;28;20815;-68
2021/06/23 10:52:42;;;;;;;11.88;3.35;;;;;;;;;;5013300;28;20033;-69
2021/06/23 10:55:29;;;;;;;14.65;3.47;;;;;;;;;;5012134;28;20500;-67
2021/06/23 10:58:06;;;;;;;14.88;3.40;;;;;;;;;;5012191;28;20096;-69
2021/06/23 11:00:32;;;;;;;15.25;3.50;;;;;;;;;;5009658;28;20470;-67
2021/06/23 11:03:10;;;;;;;12.77;4.30;;;;;;;;;;5012681;28;20036;-67
2021/06/23 11:05:36;;;;;;;19.60;3.28;;;;;;;;;;5013424;28;20065;-68
2021/06/23 11:08:20;;;;;;;12.85;3.65;;;;;;;;;;5012163;28;20378;-69
2021/06/23 11:10:47;;;;;;;15.98;3.63;;;;;;;;;;5013282;28;20055;-69
2021/06/23 11:13:18;;;;;;;12.63;4.18;;;;;;;;;;5011943;28;20120;-68
2021/06/23 11:15:49;;;;;;;14.85;3.78;;;;;;;;;;5013268;28;20030;-67
2021/06/23 11:18:17;;;;;;;17.33;3.80;;;;;;;;;;5013238;28;20029;-65
2021/06/23 11:20:43;;;;;;;16.52;3.30;;;;;;;;;;5013180;28;20672;-64
2021/06/23 11:23:28;;;;;;;15.93;3.67;;;;;;;;;;5012227;28;20046;-68
2021/06/23 11:25:55;;;;;;;17.33;3.63;;;;;;;;;;5013119;28;20429;-67
2021/06/23 11:28:30;;;;;;;18.83;4.25;;;;;;;;;;5011993;28;20030;-69
2021/06/23 11:31:07;;;;;;;12.40;3.00;;;;;;;;;;5011494;28;20022;-67
2021/06/23 11:33:39;;;;;;;16.98;3.47;;;;;;;;;;5012743;28;20022;-69
2021/06/23 11:36:08;;;;;;;16.63;4.70;;;43.50;50.80;;;;;;5012791;28;20029;-67
2021/06/23 11:38:35;;;;;;;15.77;3.30;;;;;;;;;;5016657;28;20044;-68
2021/06/23 11:41:02;;;;;;;14.73;3.63;;;;;;;;;;5017277;28;20022;-68
2021/06/23 11:43:28;;;;;;;13.57;3.65;;;;;;;;;;5015693;28;20026;-65
2021/06/23 11:45:54;;;;;;;19.05;4.07;;;45.30;86.70;;;;;;5015343;28;20359;-66
2021/06/23 11:48:21;;;;;;;17.42;4.43;;;46.10;71.40;;;;;;5013662;28;20072;-66
2021/06/23 11:50:47;;;;;;;16.60;4.45;;;45.30;48.10;;;;;;5016811;28;20088;-67
2021/06/23 11:53:15;;;;;;;15.70;3.47;;;;;;;;;;5015528;28;20036;-66
2021/06/23 11:55:41;;;;;;;11.85;4.03;;;;;;;;;;5015453;28;20072;-67
2021/06/23 11:58:07;;;;;;;16.52;4.07;;;;;;;;;;5016702;28;20026;-65
2021/06/23 12:00:35;;;;;;;23.42;4.18;;;;;;;;;;5016649;28;20021;-67
2021/06/23 12:03:01;;;;;;;22.63;4.45;;;;;;;;;;5016489;28;20037;-67
2021/06/23 12:05:27;;;;;;;16.00;4.47;;;;;;;;;;5015309;28;20026;-67
2021/06/23 12:07:54;;;;;;;16.88;4.22;;;46.80;63.70;;;;;;5015784;28;20026;-67
2021/06/23 12:10:21;;;;;;;21.83;4.07;;;;;;;;;;5016496;28;20068;-65
2021/06/23 12:12:48;;;;;;;22.10;4.18;;;47.20;45.80;;;;;;5015066;28;20546;-66
2021/06/23 12:15:16;;;;;;;13.77;3.40;;;47.70;46.30;;;;;;5016155;28;20034;-65
2021/06/23 12:17:43;;;;;;;13.85;3.78;;;48.30;56.10;;;;;;5015109;28;20037;-66
2021/06/23 12:20:10;;;;;;;18.98;4.38;;;48.30;44.80;;;;;;5016379;28;20035;-69
2021/06/23 12:22:39;;;;;;;13.00;3.55;;;48.40;44.60;;;;;;5015945;28;20422;-66
2021/06/23 12:25:15;;;;;;;16.48;4.22;;;48.30;45.30;;;;;;5015669;28;20027;-67
2021/06/23 12:27:42;;;;;;;19.05;3.75;;;48.70;43.50;;;;;;5015457;28;20080;-69
2021/06/23 12:30:08;;;;;;;14.70;3.70;;;49.00;43.70;;;;;;5015438;28;20038;-69
2021/06/23 12:32:35;;;;;;;13.95;4.22;;;49.10;44.10;;;;;;5016050;28;20069;-70
2021/06/23 12:35:04;;;;;;;16.77;4.15;;;49.10;42.90;;;;;;5015538;28;20056;-68
2021/06/23 12:37:30;;;;;;;11.63;3.90;;;48.40;41.70;;;;;;5014769;28;20026;-68
2021/06/23 12:39:56;;;;;;;13.43;3.75;;;48.50;43.60;;;;;;5015929;28;20260;-67
2021/06/23 12:42:22;;;;;;;15.98;3.85;;;48.50;41.50;;;;;;5015638;28;20452;-66
2021/06/23 12:44:48;;;;;;;19.17;3.85;;;;;;;;;;5016074;28;20585;-68
2021/06/23 12:47:14;;;;;;;17.38;3.88;;;47.40;43.70;;;;;;5015929;28;20088;-68
2021/06/23 12:49:41;;;;;;;14.90;3.30;;;47.40;42.40;;;;;;5013044;28;20037;-67
2021/06/23 12:52:07;;;;;;;18.58;3.92;;;47.70;41.60;;;;;;5015686;28;20053;-67
2021/06/23 12:54:33;;;;;;;16.85;3.83;;;48.10;40.70;;;;;;5015726;28;20038;-67
2021/06/23 12:56:59;;;;;;;18.52;3.97;;;48.50;41.50;;;;;;5015521;28;20371;-67
2021/06/23 12:59:29;;;;;;;22.52;3.65;;;48.90;40.60;;;;;;5014841;28;20038;-67
2021/06/23 13:01:57;;;;;;;23.15;4.57;;;49.50;40.30;;;;;;5015882;28;20025;-67
2021/06/23 13:04:23;;;;;;;14.05;3.30;;;49.80;39.70;;;;;;5015797;28;20057;-67
2021/06/23 13:06:49;;;;;;;12.15;3.90;;;50.30;39.30;;;;;;5014118;28;20030;-66
2021/06/23 13:09:15;;;;;;;17.38;3.78;;;50.50;39.20;;;;;;5014818;28;20537;-67
2021/06/23 13:11:41;;;;;;;19.02;4.07;;;50.20;39.30;;;;;;5015449;28;20061;-67
2021/06/23 13:14:07;;;;;;;15.20;4.18;;;50.30;41.00;;;;;;5015349;28;20168;-68
2021/06/23 13:16:33;;;;;;;19.20;4.40;;;49.10;39.30;;;;;;5015087;28;20062;-68
2021/06/23 13:18:59;;;;;;;14.90;3.63;;;50.10;41.30;;;;;;5013567;28;20041;-67
2021/06/23 13:21:25;;;;;;;20.98;3.28;;;49.70;38.90;;;;;;5014838;28;20034;-67
2021/06/23 13:23:51;;;;;;;18.52;4.13;;;49.40;39.70;;;;;;5015221;28;20485;-69
2021/06/23 13:26:18;;;;;;;22.20;3.63;;;48.60;39.90;;;;;;5021124;28;20583;-68
2021/06/23 13:28:44;;;;;;;16.08;3.83;;;49.90;39.70;;;;;;5033641;28;20040;-66
2021/06/23 13:31:10;;;;;;;12.95;3.80;;;49.10;39.80;;;;;;5034358;28;20032;-65
2021/06/23 13:33:36;;;;;;;16.60;3.67;;;48.90;38.20;;;;;;5032987;28;20124;-67
2021/06/23 13:36:03;;;;;;;17.77;4.07;;;49.50;49.40;;;;;;5034995;28;20040;-65
2021/06/23 13:38:29;;;;;;;20.40;5.05;;;49.60;47.60;;;;;;5034506;28;20088;-67
2021/06/23 13:40:56;;;;;;;15.57;3.95;;;;;;;;;;5033213;28;20108;-67
2021/06/23 13:43:24;;;;;;;20.60;3.83;;;49.30;61.90;;;;;;5034589;28;20470;-68
2021/06/23 13:45:50;;;;;;;17.05;3.67;;;49.80;37.90;;;;;;5034451;28;20040;-66
2021/06/23 13:48:16;;;;;;;18.80;3.92;;;50.70;38.10;;;;;;5033766;28;20118;-68
2021/06/23 13:50:43;;;;;;;17.35;3.55;;;51.10;37.50;;;;;;5034108;28;20028;-70
2021/06/23 13:53:09;;;;;;;20.40;3.63;;;51.20;39.20;;;;;;5034579;28;20794;-70
2021/06/23 13:55:36;;;;;;;13.23;3.60;;;51.40;38.20;;;;;;5034089;28;20030;-68
2021/06/23 13:58:03;;;;;;;20.65;3.92;;;50.80;37.50;;;;;;5032644;28;20116;-67
2021/06/23 14:00:33;;;;;;;18.77;3.78;;;50.10;37.70;;;;;;5034257;28;20033;-69
2021/06/23 14:02:59;;;;;;;14.88;3.60;;;49.60;38.50;;;;;;5033902;28;20034;-67
2021/06/23 14:05:25;;;;;;;18.10;3.60;;;49.90;38.10;;;;;;5034160;28;20140;-67
2021/06/23 14:07:52;;;;;;;19.30;4.22;;;49.50;37.40;;;;;;5033888;28;20038;-68
2021/06/23 14:10:19;;;;;;;16.00;3.88;;;51.00;38.60;;;;;;5032614;28;20030;-68
2021/06/23 14:12:45;;;;;;;16.30;3.42;;;51.40;39.40;;;;;;5034055;28;20034;-71
2021/06/23 14:15:12;;;;;;;11.10;3.33;;;51.80;39.10;;;;;;5034251;28;20025;-68
2021/06/23 14:17:39;;;;;;;12.05;3.50;;;52.30;38.20;;;;;;5033882;28;20021;-64
2021/06/23 14:20:11;;;;;;;18.85;4.00;;;52.80;36.20;;;;;;5034207;28;20044;-66
2021/06/23 14:22:37;;;;;;;16.10;3.85;;;53.00;36.30;;;;;;5034023;28;20030;-68
2021/06/23 14:25:07;;;;;;;13.38;3.50;;;52.20;35.80;;;;;;5033806;28;20028;-64
2021/06/23 14:27:33;;;;;;;14.05;3.63;;;51.50;35.60;;;;;;5033616;28;20473;-65